Qijiaojing, China
Current Conditions -  °F | °C
As of 6:00 PM on Wednesday 22 Oct 2014 (Local Time) from ZWWW Reporting Station
Clear Clear  
Wind Chill: 63°   Ceiling: Unl
Heat Index: 63°   Visibility: 6mi
Dew Point: 37°   Wind: 4mph
Humidity: 39%   Direction: 350°N
Pressure: 30.15"   Gusts: NA
Location:  43.48°N, 91.63°E
Report Text: ZWWW 221000Z 35002MPS 290V040 CAVOK 17/03 Q1021 NOSIG
Loading
Personal Weather Stations






























Interactive Weather Map
Tropical Storm Tracking
New forecast layout! Learn more

10-Day Weather Forecast

Advertisements
Track Severe Weather on mobile